Time;durP1;ratioP1;P1;durP2;ratioP2;P2;SDS_P1;SDS_P2;PMS_P1;PMS_P2;Temp;Humidity;BMP_temperature;BMP_pressure;BME280_temperature;BME280_humidity;BME280_pressure;Samples;Min_cycle;Max_cycle;Signal;HPM_P1;HPM_P2
2022/12/27 00:01:34;;;;;;;0.87;0.00;;;7.80;99.90;;;;;;5010257;28;20213;-53
2022/12/27 00:04:01;;;;;;;1.07;0.00;;;7.80;99.90;;;;;;5008657;28;20211;-52
2022/12/27 00:06:28;;;;;;;0.00;0.00;;;7.80;99.90;;;;;;5009330;28;20212;-53
2022/12/27 00:08:56;;;;;;;0.03;0.03;;;8.00;99.90;;;;;;5010810;28;20791;-52
2022/12/27 00:11:26;;;;;;;0.00;0.00;;;8.00;99.90;;;;;;5012252;28;20401;-52
2022/12/27 00:13:53;;;;;;;0.00;0.00;;;7.90;99.90;;;;;;5004361;28;20292;-52
2022/12/27 00:16:21;;;;;;;0.00;0.00;;;7.90;99.90;;;;;;5006154;28;20201;-52
2022/12/27 00:18:51;;;;;;;0.00;0.00;;;7.90;99.90;;;;;;5012036;28;20713;-53
2022/12/27 00:21:19;;;;;;;0.10;0.10;;;8.00;99.90;;;;;;5015005;28;20216;-52
2022/12/27 00:23:48;;;;;;;0.50;0.00;;;7.90;99.90;;;;;;5014057;28;20718;-53
2022/12/27 00:26:18;;;;;;;0.00;0.00;;;7.90;99.90;;;;;;5008914;28;20208;-52
2022/12/27 00:28:45;;;;;;;0.00;0.00;;;7.80;99.90;;;;;;5011747;28;20231;-52
2022/12/27 00:31:13;;;;;;;0.10;0.10;;;7.90;99.90;;;;;;5012279;28;20237;-53
2022/12/27 00:33:42;;;;;;;0.00;0.00;;;7.90;99.90;;;;;;5010384;28;20208;-51
2022/12/27 00:36:14;;;;;;;0.10;0.00;;;7.90;99.90;;;;;;5006038;28;20202;-52
2022/12/27 00:38:41;;;;;;;0.00;0.00;;;7.90;99.90;;;;;;5005867;28;20232;-52
2022/12/27 00:41:08;;;;;;;0.00;0.00;;;7.90;99.90;;;;;;5009259;28;20223;-52
2022/12/27 00:43:35;;;;;;;0.00;0.00;;;7.90;99.90;;;;;;5008573;28;20202;-52
2022/12/27 00:46:03;;;;;;;0.00;0.00;;;7.90;99.90;;;;;;5007230;28;20577;-53
2022/12/27 00:48:30;;;;;;;0.07;0.00;;;7.80;99.90;;;;;;5002147;28;20225;-52
2022/12/27 00:50:59;;;;;;;0.10;0.03;;;7.80;99.90;;;;;;5012107;28;20225;-52
2022/12/27 00:53:29;;;;;;;0.10;0.10;;;7.80;99.90;;;;;;5011449;28;20232;-52
2022/12/27 00:55:56;;;;;;;0.00;0.00;;;7.80;99.90;;;;;;5013356;28;20196;-53
2022/12/27 00:58:23;;;;;;;0.00;0.00;;;7.90;99.90;;;;;;5010480;28;20650;-53
2022/12/27 01:00:51;;;;;;;0.30;0.03;;;7.90;99.90;;;;;;5009811;28;20192;-52
2022/12/27 01:03:18;;;;;;;0.00;0.00;;;7.90;99.90;;;;;;5005319;28;20210;-53
2022/12/27 01:05:46;;;;;;;0.10;0.00;;;8.00;99.90;;;;;;5000748;28;21134;-53
2022/12/27 01:08:13;;;;;;;0.10;0.10;;;8.00;99.90;;;;;;5001610;28;20204;-52
2022/12/27 01:10:42;;;;;;;0.30;0.07;;;8.00;99.90;;;;;;5011324;28;20239;-52
2022/12/27 01:13:09;;;;;;;0.10;0.10;;;8.00;99.90;;;;;;5008433;28;20924;-53
2022/12/27 01:15:36;;;;;;;0.00;0.00;;;8.00;99.90;;;;;;5008396;28;20200;-52
2022/12/27 01:18:03;;;;;;;0.00;0.00;;;8.00;99.90;;;;;;5010239;28;20664;-52
2022/12/27 01:20:30;;;;;;;0.10;0.10;;;8.10;99.90;;;;;;5009005;28;20575;-52
2022/12/27 01:22:58;;;;;;;0.00;0.00;;;8.10;99.90;;;;;;5009510;28;20207;-52
2022/12/27 01:25:25;;;;;;;0.10;0.10;;;8.10;99.90;;;;;;5010915;28;20205;-52
2022/12/27 01:27:54;;;;;;;0.20;0.20;;;8.00;99.90;;;;;;5005301;28;20700;-53
2022/12/27 01:30:21;;;;;;;0.03;0.03;;;8.00;99.90;;;;;;5011588;28;20233;-52
2022/12/27 01:32:48;;;;;;;0.10;0.00;;;7.90;99.90;;;;;;5008804;28;20209;-52
2022/12/27 01:35:15;;;;;;;0.10;0.10;;;7.90;99.90;;;;;;5004886;28;20211;-52
2022/12/27 01:37:42;;;;;;;0.10;0.10;;;7.80;99.90;;;;;;5009215;28;20236;-52
2022/12/27 01:40:10;;;;;;;0.30;0.10;;;7.90;99.90;;;;;;5001570;28;20217;-52
2022/12/27 01:42:51;;;;;;;0.07;0.00;;;7.90;99.90;;;;;;5002654;28;20208;-52
2022/12/27 01:45:22;;;;;;;0.80;0.00;;;7.90;99.90;;;;;;5017551;28;20265;-52
2022/12/27 01:47:54;;;;;;;0.10;0.10;;;7.80;99.90;;;;;;5010193;28;20200;-51
2022/12/27 01:50:32;;;;;;;0.03;0.03;;;7.80;99.90;;;;;;5000971;28;20314;-52
2022/12/27 01:53:05;;;;;;;0.10;0.10;;;7.90;99.90;;;;;;4995919;28;20208;-52
2022/12/27 01:55:36;;;;;;;2.03;0.27;;;8.00;99.90;;;;;;5007171;28;20588;-53
2022/12/27 01:58:09;;;;;;;0.00;0.00;;;8.00;99.90;;;;;;5009568;28;20195;-53
2022/12/27 02:00:42;;;;;;;0.00;0.00;;;8.00;99.90;;;;;;5007723;28;20699;-53
2022/12/27 02:03:11;;;;;;;0.00;0.00;;;8.00;99.90;;;;;;5003892;28;20211;-52
2022/12/27 02:05:40;;;;;;;1.07;0.10;;;7.90;99.90;;;;;;5000714;28;20208;-52
2022/12/27 02:08:22;;;;;;;0.73;0.00;;;7.90;99.90;;;;;;5000918;28;20210;-51
2022/12/27 02:10:50;;;;;;;0.63;0.10;;;7.90;99.90;;;;;;5009675;28;20272;-52
2022/12/27 02:13:17;;;;;;;0.07;0.07;;;7.80;99.90;;;;;;5009631;28;20204;-52
2022/12/27 02:15:46;;;;;;;1.70;0.20;;;7.90;99.90;;;;;;5002994;28;20229;-52
2022/12/27 02:18:13;;;;;;;0.10;0.10;;;7.90;99.90;;;;;;5010344;28;20205;-52
2022/12/27 02:21:08;;;;;;;0.27;0.17;;;7.90;99.90;;;;;;5010320;28;20198;-53
2022/12/27 02:24:05;;;;;;;0.20;0.20;;;7.90;99.90;;;;;;5000604;28;20216;-52
2022/12/27 02:26:49;;;;;;;0.13;0.07;;;7.90;99.90;;;;;;4993508;28;20282;-53
2022/12/27 02:29:29;;;;;;;0.67;0.10;;;7.90;99.90;;;;;;5009684;28;20236;-52
2022/12/27 02:32:05;;;;;;;0.27;0.27;;;7.90;99.90;;;;;;5007308;28;20205;-53
2022/12/27 02:34:41;;;;;;;0.30;0.20;;;7.80;99.90;;;;;;5004982;28;20296;-53
2022/12/27 02:37:12;;;;;;;1.33;0.20;;;7.90;99.90;;;;;;5009688;28;20202;-53
2022/12/27 02:39:43;;;;;;;1.37;0.10;;;7.80;99.90;;;;;;5009244;28;20229;-52
2022/12/27 02:53:18;;;;;;;0.20;0.20;;;7.80;99.90;;;;;;5004602;28;20204;-52
2022/12/27 02:58:51;;;;;;;1.27;0.10;;;7.70;99.90;;;;;;5007521;28;20235;-53
2022/12/27 03:04:25;;;;;;;0.53;0.13;;;7.70;99.90;;;;;;5011107;28;20216;-51
2022/12/27 03:07:04;;;;;;;1.03;0.30;;;7.70;99.90;;;;;;5010117;28;20258;-52
2022/12/27 03:15:57;;;;;;;2.30;0.20;;;7.70;99.90;;;;;;5007500;28;20271;-53
2022/12/27 03:19:03;;;;;;;1.27;0.13;;;7.60;99.90;;;;;;5009782;28;20208;-51
2022/12/27 03:27:16;;;;;;;0.93;0.10;;;7.70;99.90;;;;;;4996565;28;20201;-52
2022/12/27 03:35:23;;;;;;;0.30;0.20;;;7.60;99.90;;;;;;5006304;28;20215;-52
2022/12/27 03:38:02;;;;;;;1.40;0.20;;;7.60;99.90;;;;;;5010639;28;20231;-52
2022/12/27 03:43:40;;;;;;;0.20;0.10;;;7.40;99.90;;;;;;5011854;28;20203;-52
2022/12/27 03:46:37;;;;;;;0.43;0.20;;;7.40;99.90;;;;;;5016198;28;20201;-52
2022/12/27 03:49:13;;;;;;;1.03;0.10;;;7.40;99.90;;;;;;5005948;28;20251;-53
2022/12/27 03:51:44;;;;;;;0.20;0.10;;;7.30;99.90;;;;;;5005746;28;20677;-53
2022/12/27 03:54:17;;;;;;;1.90;0.30;;;7.30;99.90;;;;;;5012849;28;20565;-54
2022/12/27 03:56:44;;;;;;;1.40;0.30;;;7.30;99.90;;;;;;5013389;28;20204;-53
2022/12/27 03:59:14;;;;;;;1.23;0.20;;;7.20;99.90;;;;;;5004622;28;20229;-51
2022/12/27 04:01:41;;;;;;;0.23;0.20;;;7.10;99.90;;;;;;5013811;28;20206;-51
2022/12/27 04:04:08;;;;;;;0.50;0.20;;;7.10;99.90;;;;;;5014090;28;20672;-52
2022/12/27 04:06:35;;;;;;;0.27;0.27;;;7.10;99.90;;;;;;5013432;28;20211;-52
2022/12/27 04:36:30;;;;;;;0.73;0.27;;;7.20;99.90;;;;;;5010682;28;20246;-52
2022/12/27 04:38:57;;;;;;;0.73;0.20;;;7.20;99.90;;;;;;5011941;28;20231;-53
2022/12/27 04:55:18;;;;;;;0.50;0.20;;;6.70;99.90;;;;;;5013129;28;20262;-52
2022/12/27 04:57:46;;;;;;;1.50;0.20;;;6.70;99.90;;;;;;5010251;28;20201;-52
2022/12/27 05:03:02;;;;;;;1.60;0.20;;;6.60;99.90;;;;;;5009637;28;20223;-52
2022/12/27 05:05:30;;;;;;;1.60;0.27;;;6.60;99.90;;;;;;5014979;28;20198;-53
2022/12/27 05:16:14;;;;;;;0.70;0.20;;;6.60;99.90;;;;;;5012181;28;20756;-52
2022/12/27 05:18:41;;;;;;;0.87;0.70;;;6.60;99.90;;;;;;5010390;28;20227;-52
2022/12/27 05:21:09;;;;;;;2.53;0.90;;;6.60;99.90;;;;;;5007814;28;20200;-53
2022/12/27 05:26:27;;;;;;;2.63;1.60;;;6.50;99.90;;;;;;4973966;28;20237;-51
2022/12/27 05:28:58;;;;;;;0.93;0.70;;;6.40;99.90;;;;;;5010377;28;20252;-52
2022/12/27 05:31:27;;;;;;;1.97;1.10;;;6.50;99.90;;;;;;5012112;28;20227;-53
2022/12/27 05:33:54;;;;;;;0.50;0.43;;;6.40;99.90;;;;;;5012444;28;20219;-52
2022/12/27 05:36:21;;;;;;;0.50;0.40;;;6.40;99.90;;;;;;5011921;28;20212;-52
2022/12/27 05:38:49;;;;;;;0.37;0.33;;;6.30;99.90;;;;;;5007661;28;20719;-52
2022/12/27 05:41:16;;;;;;;0.90;0.30;;;6.30;99.90;;;;;;5006166;28;20847;-51
2022/12/27 05:43:43;;;;;;;2.97;1.23;;;6.30;99.90;;;;;;5008365;28;20202;-51
2022/12/27 05:46:14;;;;;;;1.67;0.40;;;6.30;99.90;;;;;;5005735;28;20718;-53
2022/12/27 05:48:42;;;;;;;0.97;0.23;;;6.30;99.90;;;;;;5009468;28;20232;-52
2022/12/27 05:51:11;;;;;;;0.50;0.30;;;6.30;99.90;;;;;;5006292;28;20695;-52
2022/12/27 05:53:38;;;;;;;0.60;0.57;;;6.30;99.90;;;;;;5013732;28;20199;-52
2022/12/27 05:56:06;;;;;;;0.40;0.30;;;6.30;99.90;;;;;;5018347;28;20693;-52
2022/12/27 05:58:33;;;;;;;1.90;0.30;;;6.30;99.90;;;;;;5010668;28;20232;-53
2022/12/27 06:01:01;;;;;;;0.30;0.30;;;6.30;99.90;;;;;;5012783;28;20631;-52
2022/12/27 06:03:30;;;;;;;0.73;0.50;;;6.30;99.90;;;;;;5012029;28;20679;-52
2022/12/27 06:06:01;;;;;;;3.67;0.60;;;6.30;99.90;;;;;;5011182;28;20203;-53
2022/12/27 06:11:05;;;;;;;1.33;1.23;;;6.30;99.90;;;;;;5053016;22;20232;-47
2022/12/27 06:13:33;;;;;;;2.73;1.87;;;6.30;99.90;;;;;;5031673;28;20616;-49
2022/12/27 06:16:01;;;;;;;0.60;0.53;;;6.30;99.90;;;;;;5030566;28;20207;-49
2022/12/27 06:18:32;;;;;;;1.03;0.70;;;6.30;99.90;;;;;;5030734;28;20208;-49
2022/12/27 06:21:03;;;;;;;0.33;0.33;;;6.20;99.90;;;;;;5005903;28;20203;-48
2022/12/27 06:23:30;;;;;;;1.27;0.80;;;6.20;99.90;;;;;;5011831;28;20211;-50
2022/12/27 06:25:58;;;;;;;0.63;0.60;;;6.30;99.90;;;;;;5011925;28;20200;-48
2022/12/27 06:28:25;;;;;;;1.00;0.93;;;6.30;99.90;;;;;;5005738;28;20818;-50
2022/12/27 06:30:52;;;;;;;0.57;0.57;;;6.30;99.90;;;;;;5009960;28;20233;-48
2022/12/27 06:33:19;;;;;;;0.90;0.90;;;6.20;99.90;;;;;;5012016;28;20212;-48
2022/12/27 06:35:47;;;;;;;2.13;0.87;;;6.20;99.90;;;;;;5011250;28;20676;-48
2022/12/27 06:38:14;;;;;;;0.50;0.50;;;6.20;99.90;;;;;;4992948;28;20672;-49
2022/12/27 06:40:41;;;;;;;1.30;0.70;;;6.20;99.90;;;;;;5009712;28;20232;-49
2022/12/27 06:43:08;;;;;;;1.17;1.07;;;6.20;99.90;;;;;;5004637;28;20204;-49
2022/12/27 06:45:35;;;;;;;1.17;1.17;;;6.20;99.90;;;;;;5005383;28;20209;-48
2022/12/27 06:48:03;;;;;;;1.60;1.10;;;6.10;99.90;;;;;;5007633;28;20205;-48
2022/12/27 06:50:30;;;;;;;1.83;1.37;;;6.10;99.90;;;;;;5010496;28;20248;-48
2022/12/27 06:52:58;;;;;;;5.10;1.60;;;6.00;99.90;;;;;;4999155;28;20285;-49
2022/12/27 06:55:25;;;;;;;2.50;1.63;;;5.90;99.90;;;;;;5003915;28;20213;-49
2022/12/27 06:57:52;;;;;;;2.40;2.30;;;6.00;99.90;;;;;;5009713;28;20201;-49
2022/12/27 07:00:20;;;;;;;2.73;1.23;;;5.90;99.90;;;;;;5015486;28;20290;-48
2022/12/27 07:02:47;;;;;;;1.93;1.83;;;5.90;99.90;;;;;;5015161;28;20224;-49
2022/12/27 07:05:14;;;;;;;2.93;2.03;;;5.90;99.90;;;;;;5014036;28;20677;-48
2022/12/27 07:07:41;;;;;;;2.07;1.87;;;6.00;99.90;;;;;;5014881;28;20200;-49
2022/12/27 07:10:10;;;;;;;2.90;1.87;;;6.00;99.90;;;;;;4997325;28;20244;-49
2022/12/27 07:12:37;;;;;;;1.90;1.30;;;6.00;99.90;;;;;;4976233;28;20239;-49
2022/12/27 07:15:06;;;;;;;4.37;3.93;;;6.00;99.90;;;;;;4991815;28;20201;-49
2022/12/27 07:17:35;;;;;;;4.47;3.13;;;6.00;99.90;;;;;;5005780;28;20291;-50
2022/12/27 07:20:02;;;;;;;2.23;2.03;;;6.10;99.90;;;;;;4995417;28;20222;-48
2022/12/27 07:22:29;;;;;;;1.87;1.70;;;6.10;99.90;;;;;;4995444;28;20198;-50
2022/12/27 07:24:56;;;;;;;3.27;2.40;;;6.00;99.90;;;;;;4992436;28;20294;-48
2022/12/27 07:27:25;;;;;;;3.77;2.23;;;6.00;99.90;;;;;;4993963;28;20206;-48
2022/12/27 07:29:52;;;;;;;3.30;2.20;;;6.00;99.90;;;;;;4999709;28;20879;-48
2022/12/27 07:32:19;;;;;;;1.63;1.53;;;6.00;99.90;;;;;;4993297;28;20230;-49
2022/12/27 07:34:46;;;;;;;1.20;1.13;;;6.10;99.90;;;;;;5001464;28;20311;-49
2022/12/27 07:37:13;;;;;;;2.27;1.50;;;6.00;99.90;;;;;;4998281;28;20263;-49
2022/12/27 07:39:40;;;;;;;5.10;1.00;;;6.00;99.90;;;;;;5000083;28;20576;-48
2022/12/27 07:42:07;;;;;;;2.00;1.77;;;6.10;99.90;;;;;;4995020;28;20261;-48
2022/12/27 07:44:35;;;;;;;2.47;1.10;;;6.10;99.90;;;;;;4991292;28;20206;-50
2022/12/27 07:47:02;;;;;;;3.77;1.50;;;6.10;99.90;;;;;;4999910;28;20700;-48
2022/12/27 07:49:29;;;;;;;2.20;1.43;;;6.20;99.90;;;;;;4995670;28;20284;-49
2022/12/27 07:52:00;;;;;;;4.13;2.57;;;6.10;99.90;;;;;;4994389;28;20270;-48
2022/12/27 07:54:27;;;;;;;1.00;1.00;;;6.10;99.90;;;;;;4990871;28;20211;-49
2022/12/27 07:56:54;;;;;;;2.57;1.43;;;6.10;99.90;;;;;;4986366;28;20204;-49
2022/12/27 07:59:21;;;;;;;1.90;1.50;;;6.10;99.90;;;;;;4984941;28;20285;-50
2022/12/27 08:02:04;;;;;;;1.80;0.70;;;6.10;99.90;;;;;;4996012;28;20283;-49
2022/12/27 08:04:33;;;;;;;2.73;1.17;;;6.10;99.90;;;;;;4992086;28;20256;-48
2022/12/27 08:07:04;;;;;;;1.70;0.70;;;6.10;99.90;;;;;;4994500;28;20293;-49
2022/12/27 08:09:35;;;;;;;2.10;1.63;;;6.20;99.90;;;;;;5010491;28;20223;-48
2022/12/27 08:12:02;;;;;;;0.87;0.83;;;6.10;99.90;;;;;;5014506;28;20224;-49
2022/12/27 08:14:29;;;;;;;2.60;2.40;;;6.20;99.90;;;;;;5008841;28;20209;-48
2022/12/27 08:17:05;;;;;;;0.77;0.70;;;6.20;99.90;;;;;;4976973;28;20201;-49
2022/12/27 08:19:32;;;;;;;0.77;0.73;;;6.30;99.90;;;;;;4985450;28;20224;-48
2022/12/27 08:22:04;;;;;;;1.20;0.60;;;6.30;99.90;;;;;;5005528;28;20263;-48
2022/12/27 08:24:31;;;;;;;0.67;0.67;;;6.30;99.90;;;;;;4996643;28;20548;-48
2022/12/27 08:26:58;;;;;;;3.03;1.07;;;6.30;99.90;;;;;;4989086;28;20246;-49
2022/12/27 08:29:25;;;;;;;0.57;0.57;;;6.30;99.90;;;;;;4998556;28;20222;-48
2022/12/27 08:31:52;;;;;;;0.80;0.80;;;6.30;99.90;;;;;;4986341;28;20725;-49
2022/12/27 08:34:21;;;;;;;3.03;0.83;;;6.30;99.90;;;;;;4998449;28;20224;-48
2022/12/27 08:36:50;;;;;;;0.80;0.70;;;6.40;99.90;;;;;;4991184;28;20210;-48
2022/12/27 08:39:17;;;;;;;0.73;0.50;;;6.40;99.90;;;;;;5005772;28;20222;-48
2022/12/27 08:41:45;;;;;;;0.63;0.60;;;6.40;99.90;;;;;;5000613;28;20554;-49
2022/12/27 08:44:12;;;;;;;0.47;0.47;;;6.40;99.90;;;;;;4993987;28;20205;-49
2022/12/27 08:46:39;;;;;;;1.80;1.00;;;6.40;99.90;;;;;;4991905;28;20201;-48
2022/12/27 08:49:06;;;;;;;0.93;0.93;;;6.40;99.90;;;;;;4993527;28;20229;-50
2022/12/27 08:51:35;;;;;;;1.17;1.13;;;6.50;99.90;;;;;;4991579;28;20288;-48
2022/12/27 08:54:02;;;;;;;1.10;1.10;;;6.50;99.90;;;;;;4976206;28;20215;-49
2022/12/27 08:56:29;;;;;;;1.40;1.10;;;6.50;99.90;;;;;;4997903;28;20217;-49
2022/12/27 08:58:56;;;;;;;1.40;1.23;;;6.60;99.90;;;;;;4974400;28;20229;-49
2022/12/27 09:01:24;;;;;;;1.73;0.60;;;6.60;99.90;;;;;;4989798;28;20206;-49
2022/12/27 09:03:51;;;;;;;1.53;0.70;;;6.60;99.90;;;;;;4999476;28;20218;-49
2022/12/27 09:06:20;;;;;;;0.90;0.40;;;6.70;99.90;;;;;;4994909;28;20206;-47
2022/12/27 09:08:50;;;;;;;2.43;0.40;;;6.70;99.90;;;;;;4985080;28;20199;-48
2022/12/27 09:11:18;;;;;;;1.43;0.67;;;6.60;99.90;;;;;;4983975;28;20257;-49
2022/12/27 09:13:46;;;;;;;0.70;0.53;;;6.70;99.90;;;;;;4984420;28;20326;-48
2022/12/27 09:16:18;;;;;;;1.53;0.73;;;6.70;99.90;;;;;;4990081;28;20201;-48
2022/12/27 09:18:49;;;;;;;2.00;1.37;;;6.70;99.90;;;;;;5001026;28;20260;-48
2022/12/27 09:21:17;;;;;;;2.73;0.97;;;6.80;99.90;;;;;;4992006;28;20209;-47
2022/12/27 09:23:45;;;;;;;1.40;1.30;;;7.00;99.90;;;;;;4993126;28;20253;-47
2022/12/27 09:26:16;;;;;;;3.67;1.10;;;7.00;99.90;;;;;;4993477;28;20206;-48
2022/12/27 09:28:43;;;;;;;2.83;1.20;;;6.90;99.90;;;;;;4993162;28;20208;-47
2022/12/27 09:31:12;;;;;;;1.30;0.93;;;6.90;99.90;;;;;;4993241;28;20296;-47
2022/12/27 09:33:39;;;;;;;0.70;0.70;;;6.80;99.90;;;;;;4993203;28;20312;-53
2022/12/27 09:36:09;;;;;;;0.87;0.83;;;6.90;99.90;;;;;;4992819;28;20703;-48
2022/12/27 09:38:37;;;;;;;3.57;1.43;;;6.90;99.90;;;;;;5005723;28;20208;-48
2022/12/27 09:41:07;;;;;;;2.20;1.23;;;6.80;99.90;;;;;;4996481;28;20239;-47
2022/12/27 09:43:41;;;;;;;1.43;0.47;;;6.80;99.90;;;;;;4984426;28;20743;-48
2022/12/27 09:46:15;;;;;;;2.00;0.90;;;6.90;99.90;;;;;;4988772;28;20642;-50
2022/12/27 09:48:42;;;;;;;2.60;1.20;;;6.90;99.90;;;;;;4993411;28;20213;-47
2022/12/27 09:51:16;;;;;;;1.20;0.80;;;6.80;99.90;;;;;;4991870;28;20202;-48
2022/12/27 09:53:47;;;;;;;0.70;0.70;;;6.90;99.90;;;;;;5000856;28;20217;-48
2022/12/27 09:56:22;;;;;;;1.37;0.57;;;6.90;99.90;;;;;;4993796;28;20735;-49
2022/12/27 09:58:54;;;;;;;3.03;1.13;;;7.00;99.90;;;;;;5004734;28;20252;-49
2022/12/27 10:01:24;;;;;;;4.00;1.60;;;7.00;99.90;;;;;;4975728;28;20212;-47
2022/12/27 10:03:52;;;;;;;3.30;2.13;;;7.00;99.90;;;;;;4999953;28;20660;-48
2022/12/27 10:06:49;;;;;;;2.37;1.50;;;7.10;99.90;;;;;;5006772;28;20248;-48
2022/12/27 10:09:32;;;;;;;2.17;1.30;;;7.10;99.90;;;;;;4991797;28;20235;-48
2022/12/27 10:12:10;;;;;;;1.13;1.00;;;7.20;99.90;;;;;;4999471;28;20237;-48
2022/12/27 10:14:53;;;;;;;3.77;1.60;;;7.20;99.90;;;;;;4997524;28;20668;-47
2022/12/27 10:17:33;;;;;;;1.57;0.70;;;7.20;99.90;;;;;;4995246;28;20640;-47
2022/12/27 10:20:08;;;;;;;2.60;1.30;;;7.20;99.90;;;;;;4977000;28;20275;-48
2022/12/27 10:22:41;;;;;;;3.60;1.00;;;7.10;99.90;;;;;;4992591;28;20284;-47
2022/12/27 10:25:12;;;;;;;0.60;0.60;;;7.20;99.90;;;;;;4995167;28;20297;-48
2022/12/27 10:27:41;;;;;;;1.67;0.73;;;7.20;99.90;;;;;;4996559;28;20210;-47
2022/12/27 10:30:15;;;;;;;1.73;1.63;;;7.30;99.90;;;;;;4990980;28;20226;-49
2022/12/27 10:32:42;;;;;;;1.20;0.83;;;7.30;99.90;;;;;;4977540;28;20771;-49
2022/12/27 10:35:14;;;;;;;1.27;1.23;;;7.40;99.90;;;;;;4983110;28;20253;-48
2022/12/27 10:37:42;;;;;;;1.00;1.00;;;7.50;99.90;;;;;;4977246;28;20297;-49
2022/12/27 10:40:14;;;;;;;1.20;1.10;;;7.50;99.90;;;;;;4985249;28;20287;-49
2022/12/27 10:42:47;;;;;;;1.87;1.50;;;7.50;99.90;;;;;;4990850;28;20206;-49
2022/12/27 10:45:35;;;;;;;0.70;0.70;;;7.50;99.90;;;;;;4991977;28;20207;-48
2022/12/27 10:48:17;;;;;;;2.50;1.27;;;7.50;99.90;;;;;;4989971;28;20270;-48
2022/12/27 10:50:47;;;;;;;0.50;0.50;;;7.50;99.90;;;;;;4989573;28;20224;-49
2022/12/27 10:53:35;;;;;;;1.70;0.60;;;7.60;99.90;;;;;;4988624;28;20233;-49
2022/12/27 10:56:14;;;;;;;0.93;0.93;;;7.60;99.90;;;;;;4995436;28;20288;-48
2022/12/27 10:58:44;;;;;;;5.10;1.33;;;7.80;99.90;;;;;;4993958;28;20207;-48
2022/12/27 11:01:26;;;;;;;1.50;1.37;;;7.80;99.90;;;;;;4983754;28;20627;-48
2022/12/27 11:04:10;;;;;;;1.50;1.40;;;7.80;99.90;;;;;;4991665;28;20385;-49
2022/12/27 11:06:38;;;;;;;1.73;1.13;;;7.80;99.90;;;;;;4994738;28;20212;-49
2022/12/27 11:09:20;;;;;;;4.23;1.40;;;7.80;99.90;;;;;;4988609;28;20282;-49
2022/12/27 11:11:47;;;;;;;3.70;1.93;;;7.90;99.90;;;;;;4983393;28;21634;-48
2022/12/27 11:14:18;;;;;;;1.37;1.37;;;7.90;99.90;;;;;;4989226;28;20281;-49
2022/12/27 11:16:48;;;;;;;1.00;1.00;;;8.00;99.90;;;;;;4980568;28;20205;-49
2022/12/27 11:19:23;;;;;;;1.80;1.70;;;8.00;99.90;;;;;;4994051;28;20708;-49
2022/12/27 11:21:52;;;;;;;1.10;1.07;;;8.10;99.90;;;;;;4989211;28;20713;-49
2022/12/27 11:24:22;;;;;;;1.70;1.60;;;8.10;99.90;;;;;;4985807;28;20727;-48
2022/12/27 11:26:58;;;;;;;1.23;0.83;;;8.10;99.90;;;;;;4981177;28;20203;-49
2022/12/27 11:29:26;;;;;;;3.90;2.33;;;8.20;99.90;;;;;;4980935;28;20304;-49
2022/12/27 11:32:06;;;;;;;2.17;2.00;;;8.30;99.90;;;;;;5001748;28;20748;-49
2022/12/27 11:34:36;;;;;;;1.50;0.53;;;8.30;99.90;;;;;;4981523;28;20199;-49
2022/12/27 11:37:06;;;;;;;0.60;0.40;;;8.30;99.90;;;;;;4995821;28;20665;-48
2022/12/27 11:39:42;;;;;;;1.27;1.17;;;8.30;99.90;;;;;;5011254;28;20228;-49
2022/12/27 11:42:17;;;;;;;0.80;0.50;;;8.20;99.90;;;;;;4987830;28;20205;-49
2022/12/27 11:44:48;;;;;;;0.30;0.30;;;8.10;99.90;;;;;;4983767;28;20211;-48
2022/12/27 11:47:28;;;;;;;0.50;0.43;;;8.20;99.90;;;;;;4998444;28;20201;-48
2022/12/27 11:50:00;;;;;;;0.40;0.40;;;8.30;99.90;;;;;;4989887;28;20226;-50
2022/12/27 11:52:53;;;;;;;0.77;0.40;;;8.40;99.90;;;;;;4988282;28;20230;-49
2022/12/27 11:55:56;;;;;;;1.60;0.57;;;8.40;99.90;;;;;;4990363;28;20214;-47
2022/12/27 11:59:04;;;;;;;0.50;0.33;;;8.30;99.90;;;;;;4989847;28;20206;-48
2022/12/27 12:02:18;;;;;;;2.50;0.50;;;8.20;99.90;;;;;;4983398;28;20337;-50
2022/12/27 12:05:21;;;;;;;0.87;0.70;;;8.10;99.90;;;;;;4986519;28;20193;-49
2022/12/27 12:08:05;;;;;;;2.73;0.83;;;8.10;99.90;;;;;;4992764;28;20670;-48
2022/12/27 12:10:42;;;;;;;0.40;0.40;;;8.00;99.90;;;;;;5010494;28;20234;-48
2022/12/27 12:13:52;;;;;;;1.43;0.70;;;8.00;99.90;;;;;;4998131;28;20215;-49
2022/12/27 12:16:44;;;;;;;0.53;0.40;;;7.90;99.90;;;;;;4996137;28;20288;-50
2022/12/27 12:19:24;;;;;;;2.07;0.70;;;7.90;99.90;;;;;;5001632;28;20265;-50
2022/12/27 12:22:12;;;;;;;0.30;0.30;;;7.90;99.90;;;;;;4992555;28;20193;-49
2022/12/27 12:24:56;;;;;;;1.50;0.20;;;7.90;99.90;;;;;;4996213;28;20213;-50
2022/12/27 12:27:45;;;;;;;1.00;0.20;;;7.90;99.90;;;;;;4993518;28;20205;-50
2022/12/27 12:30:32;;;;;;;0.43;0.40;;;8.00;99.90;;;;;;5006968;28;20320;-48
2022/12/27 12:33:27;;;;;;;1.40;1.30;;;8.00;99.90;;;;;;4981887;28;20260;-48
2022/12/27 12:36:12;;;;;;;0.30;0.30;;;8.20;99.90;;;;;;4975503;28;20277;-47
2022/12/27 12:38:50;;;;;;;1.53;0.40;;;8.40;99.90;;;;;;4983534;28;20751;-49
2022/12/27 12:41:47;;;;;;;0.83;0.30;;;8.50;99.90;;;;;;4999200;28;20212;-50
2022/12/27 12:44:37;;;;;;;0.30;0.27;;;8.40;99.90;;;;;;5002306;28;20201;-48
2022/12/27 12:47:15;;;;;;;0.40;0.40;;;8.40;99.90;;;;;;5013902;28;20213;-49
2022/12/27 12:49:57;;;;;;;2.53;0.67;;;8.40;99.90;;;;;;4998659;28;20233;-48
2022/12/27 12:52:34;;;;;;;1.70;1.20;;;8.40;99.90;;;;;;4974807;28;20565;-50
2022/12/27 12:55:23;;;;;;;2.47;1.03;;;8.40;99.90;;;;;;4976433;28;20210;-48
2022/12/27 12:58:05;;;;;;;1.27;0.60;;;8.40;99.90;;;;;;4976611;28;20700;-48
2022/12/27 13:00:50;;;;;;;1.70;0.80;;;8.40;99.90;;;;;;4994120;28;20277;-48
2022/12/27 13:03:44;;;;;;;1.47;0.90;;;8.40;99.90;;;;;;5010436;28;20766;-48
2022/12/27 13:06:23;;;;;;;1.70;0.73;;;8.50;99.90;;;;;;4989131;28;20269;-50
2022/12/27 13:09:02;;;;;;;3.63;2.50;;;8.50;99.90;;;;;;4979009;28;20206;-48
2022/12/27 13:11:45;;;;;;;0.80;0.63;;;8.40;99.90;;;;;;5002835;28;20296;-48
2022/12/27 13:14:39;;;;;;;0.40;0.40;;;8.50;99.90;;;;;;5005178;28;20231;-49
2022/12/27 13:17:14;;;;;;;0.37;0.20;;;8.50;99.90;;;;;;5005637;28;20549;-48
2022/12/27 13:20:01;;;;;;;0.53;0.30;;;8.40;99.90;;;;;;5009383;28;20228;-48
2022/12/27 13:22:40;;;;;;;0.27;0.27;;;8.40;99.90;;;;;;5007972;28;20209;-49
2022/12/27 13:25:21;;;;;;;0.63;0.40;;;8.40;99.90;;;;;;4994327;28;20597;-49
2022/12/27 13:27:58;;;;;;;0.33;0.33;;;8.40;99.90;;;;;;5003136;28;20600;-48
2022/12/27 13:30:32;;;;;;;1.23;0.30;;;8.40;99.90;;;;;;5009642;28;20280;-49
2022/12/27 13:33:18;;;;;;;0.93;0.30;;;8.40;99.90;;;;;;4993351;28;20586;-48
2022/12/27 13:35:59;;;;;;;1.13;0.60;;;8.50;99.90;;;;;;5003514;28;20201;-48
2022/12/27 13:39:01;;;;;;;0.67;0.20;;;8.50;99.90;;;;;;5021310;28;20201;-49
2022/12/27 13:41:45;;;;;;;0.30;0.20;;;8.50;99.90;;;;;;4994087;28;20213;-48
2022/12/27 13:44:38;;;;;;;0.47;0.47;;;8.60;99.90;;;;;;4993441;28;20270;-48
2022/12/27 13:47:31;;;;;;;1.30;1.10;;;8.60;99.90;;;;;;5002291;28;20239;-49
2022/12/27 13:50:30;;;;;;;0.70;0.30;;;8.60;99.90;;;;;;5012430;28;20229;-48
2022/12/27 13:53:18;;;;;;;0.60;0.30;;;8.60;99.90;;;;;;5012544;28;20203;-48
2022/12/27 13:55:55;;;;;;;0.70;0.40;;;8.60;99.90;;;;;;5012139;28;20208;-47
2022/12/27 13:58:46;;;;;;;1.67;0.40;;;8.60;99.90;;;;;;5000191;28;20217;-48
2022/12/27 14:01:46;;;;;;;0.30;0.30;;;8.60;99.90;;;;;;5010425;28;20269;-49
2022/12/27 14:04:38;;;;;;;1.13;0.30;;;8.60;99.90;;;;;;4996406;28;20693;-49
2022/12/27 14:07:22;;;;;;;0.43;0.27;;;8.50;99.90;;;;;;5007907;28;20620;-47
2022/12/27 14:10:12;;;;;;;0.77;0.50;;;8.50;99.90;;;;;;5006914;28;20227;-49
2022/12/27 14:12:56;;;;;;;0.80;0.60;;;8.50;99.90;;;;;;4992919;28;20221;-48
2022/12/27 14:15:27;;;;;;;0.40;0.30;;;8.50;99.90;;;;;;4990135;28;20210;-49
2022/12/27 14:18:13;;;;;;;0.30;0.30;;;8.40;99.90;;;;;;4984607;28;20211;-48
2022/12/27 14:20:55;;;;;;;1.07;0.40;;;8.40;99.90;;;;;;4988274;28;20219;-49
2022/12/27 14:23:56;;;;;;;0.67;0.30;;;8.40;99.90;;;;;;5000913;28;20200;-47
2022/12/27 14:26:58;;;;;;;0.40;0.30;;;8.30;99.90;;;;;;4965027;28;20272;-48
2022/12/27 14:29:47;;;;;;;2.43;0.20;;;8.20;99.90;;;;;;4985509;28;20260;-48
2022/12/27 14:32:48;;;;;;;0.20;0.20;;;8.10;99.90;;;;;;4986693;28;20237;-49
2022/12/27 14:35:45;;;;;;;1.10;0.20;;;8.10;99.90;;;;;;4961670;28;20254;-49
2022/12/27 14:38:52;;;;;;;1.13;0.30;;;8.10;99.90;;;;;;4992352;28;20213;-49
2022/12/27 14:41:44;;;;;;;0.93;0.20;;;8.10;99.90;;;;;;4990029;28;20256;-48
2022/12/27 14:44:48;;;;;;;2.73;0.30;;;8.10;99.90;;;;;;4971829;28;20632;-49
2022/12/27 14:47:57;;;;;;;1.07;0.40;;;8.10;99.90;;;;;;4988319;28;20673;-49
2022/12/27 14:51:08;;;;;;;0.50;0.40;;;8.00;99.90;;;;;;4990717;28;20231;-49
2022/12/27 14:54:25;;;;;;;4.40;0.40;;;8.00;99.90;;;;;;5005882;28;20286;-48
2022/12/27 14:57:04;;;;;;;3.20;0.53;;;7.90;99.90;;;;;;4995133;28;20200;-48
2022/12/27 14:59:41;;;;;;;0.60;0.60;;;8.00;99.90;;;;;;4996623;28;20252;-49
2022/12/27 15:02:28;;;;;;;2.83;0.40;;;7.90;99.90;;;;;;4999075;28;20581;-49
2022/12/27 15:05:13;;;;;;;0.30;0.30;;;7.90;99.90;;;;;;4991913;28;20325;-48
2022/12/27 15:08:16;;;;;;;0.40;0.40;;;7.90;99.90;;;;;;4985903;28;20252;-49
2022/12/27 15:10:59;;;;;;;0.73;0.40;;;7.80;99.90;;;;;;5003406;28;20232;-47
2022/12/27 15:13:40;;;;;;;0.67;0.30;;;7.80;99.90;;;;;;4993270;28;21119;-49